Time;durP1;ratioP1;P1;durP2;ratioP2;P2;SDS_P1;SDS_P2;PMS_P1;PMS_P2;Temp;Humidity;BMP_temperature;BMP_pressure;BME280_temperature;BME280_humidity;BME280_pressure;Samples;Min_cycle;Max_cycle;Signal;HPM_P1;HPM_P2
2022/08/14 00:00:42;;;;;;;9.40;8.47;;;;;;;21.91;60.71;100185.34;5053784;28;20477;-84
2022/08/14 00:03:18;;;;;;;10.97;9.03;;;;;;;21.71;61.44;100178.06;5060195;28;20472;-83
2022/08/14 00:05:45;;;;;;;9.50;8.60;;;;;;;21.66;61.77;100174.34;5062980;28;20480;-83
2022/08/14 00:08:11;;;;;;;10.80;9.50;;;;;;;21.55;62.64;100170.41;5048996;28;20458;-83
2022/08/14 00:10:38;;;;;;;9.80;8.97;;;;;;;21.52;63.17;100176.25;5063337;28;20529;-82
2022/08/14 00:13:07;;;;;;;11.30;9.40;;;;;;;21.53;63.91;100164.34;5048325;28;20450;-83
2022/08/14 00:15:37;;;;;;;10.00;9.10;;;;;;;21.58;63.79;100169.97;5044755;28;20505;-83
2022/08/14 00:18:05;;;;;;;9.37;8.57;;;;;;;21.63;62.46;100165.56;5045108;28;20457;-83
2022/08/14 00:20:34;;;;;;;9.40;8.60;;;;;;;21.68;62.55;100183.13;5062179;28;20484;-83
2022/08/14 00:23:01;;;;;;;9.67;8.70;;;;;;;21.73;62.42;100175.13;5057227;28;20438;-85
2022/08/14 00:25:28;;;;;;;9.43;8.47;;;;;;;21.80;62.37;100176.81;5055396;28;20476;-84
2022/08/14 00:27:55;;;;;;;11.83;10.07;;;;;;;21.75;65.09;100162.16;5057833;28;20469;-84
2022/08/14 00:30:22;;;;;;;10.77;9.60;;;;;;;21.48;65.64;100156.00;5063849;28;20472;-85
2022/08/14 00:32:50;;;;;;;9.67;8.77;;;;;;;21.22;66.24;100158.53;5050920;28;20481;-85
2022/08/14 00:35:17;;;;;;;11.37;9.63;;;;;;;21.38;65.36;100149.06;5049239;28;20449;-84
2022/08/14 00:37:46;;;;;;;10.17;9.17;;;;;;;21.36;65.42;100156.63;5063920;28;20456;-85
2022/08/14 00:40:14;;;;;;;10.57;9.57;;;;;;;21.27;65.78;100157.91;5061638;28;20953;-86
2022/08/14 00:42:41;;;;;;;14.50;9.50;;;;;;;21.19;65.79;100158.94;5048471;28;20452;-86
2022/08/14 00:45:10;;;;;;;10.13;9.23;;;;;;;21.17;65.79;100152.06;5063350;28;20437;-85
2022/08/14 00:47:37;;;;;;;10.87;9.03;;;;;;;21.25;65.49;100143.69;5054265;28;20692;-85
2022/08/14 00:50:07;;;;;;;10.97;9.97;;;;;;;21.11;65.96;100139.31;5059125;28;20445;-86
2022/08/14 00:52:34;;;;;;;10.53;9.53;;;;;;;21.05;66.58;100136.41;5063899;28;20472;-86
2022/08/14 00:55:01;;;;;;;11.77;9.40;;;;;;;20.97;67.47;100135.78;5061221;28;20446;-81
2022/08/14 00:57:30;;;;;;;9.43;8.53;;;;;;;21.11;66.24;100131.16;5063251;28;20487;-81
2022/08/14 00:59:59;;;;;;;10.10;9.13;;;;;;;20.95;66.88;100137.88;5063464;28;20460;-82
2022/08/14 01:02:26;;;;;;;10.03;9.10;;;;;;;21.07;66.09;100141.63;5054838;28;20482;-81
2022/08/14 01:04:56;;;;;;;9.07;8.30;;;;;;;21.21;65.53;100128.84;5056855;28;20449;-81
2022/08/14 01:07:25;;;;;;;9.30;8.50;;;;;;;21.33;65.25;100127.13;5063019;28;20481;-81
2022/08/14 01:09:54;;;;;;;11.00;9.97;;;;;;;21.38;65.34;100121.06;5059101;28;20484;-82
2022/08/14 01:12:20;;;;;;;13.03;9.80;;;;;;;21.13;66.13;100120.94;5060758;28;20484;-82
2022/08/14 01:14:55;;;;;;;9.53;8.63;;;;;;;20.93;66.93;100119.06;5061274;28;20469;-82
2022/08/14 01:17:22;;;;;;;9.57;8.60;;;;;;;21.04;66.42;100120.31;5062654;28;20476;-83
2022/08/14 01:22:48;;;;;;;10.40;9.50;;;;;;;21.05;67.15;100124.69;4986176;28;20467;-85
2022/08/14 01:25:14;;;;;;;11.40;10.30;;;;;;;20.92;67.86;100111.97;5043771;28;20454;-85
2022/08/14 01:27:43;;;;;;;10.20;9.30;;;;;;;20.65;68.95;100106.56;5046002;28;20473;-85
2022/08/14 01:30:10;;;;;;;11.73;10.63;;;;;;;20.59;69.36;100101.09;5046596;28;20803;-85
2022/08/14 01:32:37;;;;;;;9.77;8.90;;;;;;;20.87;67.74;100106.34;5059638;28;20485;-86
2022/08/14 01:35:07;;;;;;;12.53;11.43;;;;;;;20.82;68.71;100109.69;5044148;28;20521;-86
2022/08/14 01:37:34;;;;;;;11.30;10.30;;;;;;;20.81;70.28;100104.47;5058155;28;20510;-86
2022/08/14 01:40:02;;;;;;;11.53;9.80;;;;;;;20.57;70.55;100104.06;5062233;28;20499;-85
2022/08/14 01:42:29;;;;;;;11.43;10.20;;;;;;;20.68;69.87;100097.19;5062599;28;20559;-86
2022/08/14 01:44:57;;;;;;;11.50;10.40;;;;;;;20.66;69.16;100100.09;5061574;28;20457;-86
2022/08/14 01:47:24;;;;;;;10.73;9.80;;;;;;;20.75;68.93;100098.00;5060677;28;20488;-86
2022/08/14 01:49:53;;;;;;;11.40;10.30;;;;;;;20.51;69.61;100089.41;5062372;28;20470;-85
2022/08/14 01:52:21;;;;;;;11.83;10.73;;;;;;;20.40;69.69;100091.94;5043506;28;20486;-84
2022/08/14 01:54:47;;;;;;;11.70;10.53;;;;;;;20.35;69.76;100091.75;5051836;28;20850;-83
2022/08/14 01:57:15;;;;;;;11.70;10.70;;;;;;;20.38;69.62;100089.44;5060918;28;20545;-84
2022/08/14 01:59:43;;;;;;;11.13;9.97;;;;;;;20.41;69.13;100088.16;5048170;28;20474;-83
2022/08/14 02:02:13;;;;;;;10.50;9.50;;;;;;;20.42;68.63;100098.00;5050764;28;20484;-83
2022/08/14 02:04:41;;;;;;;10.27;9.23;;;;;;;20.45;68.75;100086.69;5056783;28;20445;-83
2022/08/14 02:07:09;;;;;;;11.50;10.40;;;;;;;20.48;67.85;100083.56;5050360;28;20474;-83
2022/08/14 02:09:37;;;;;;;12.67;10.53;;;;;;;20.43;68.15;100086.94;5058148;28;20524;-82
2022/08/14 02:12:05;;;;;;;10.80;9.70;;;;;;;20.34;68.48;100084.63;5045005;28;20489;-83
2022/08/14 02:14:34;;;;;;;11.23;10.10;;;;;;;20.27;68.68;100079.19;5062075;28;20449;-83
2022/08/14 02:17:01;;;;;;;11.23;10.07;;;;;;;20.42;68.30;100082.53;5058212;28;20476;-83
2022/08/14 02:19:30;;;;;;;10.33;9.13;;;;;;;20.56;67.70;100080.66;5062450;28;20484;-83
2022/08/14 02:22:01;;;;;;;10.60;9.60;;;;;;;20.63;67.18;100064.38;5059111;28;20501;-83
2022/08/14 02:24:29;;;;;;;10.10;9.20;;;;;;;20.66;66.80;100072.13;5049683;28;20437;-84
2022/08/14 02:26:58;;;;;;;9.97;9.00;;;;;;;20.71;66.74;100066.88;5059953;28;20898;-83
2022/08/14 02:29:28;;;;;;;11.47;9.37;;;;;;;20.59;67.15;100069.38;5053601;28;20584;-83
2022/08/14 02:31:57;;;;;;;9.87;8.87;;;;;;;20.58;67.27;100064.97;5044928;28;20545;-84
2022/08/14 02:34:27;;;;;;;10.03;9.10;;;;;;;20.57;66.98;100063.31;5042947;28;20437;-84
2022/08/14 02:36:58;;;;;;;9.80;8.90;;;;;;;20.50;67.53;100062.47;5041981;28;20477;-83
2022/08/14 02:39:26;;;;;;;9.97;8.93;;;;;;;20.67;66.65;100065.63;5042739;28;20447;-84
2022/08/14 02:41:53;;;;;;;12.40;9.03;;;;;;;20.63;66.69;100059.78;5041670;28;20551;-84
2022/08/14 02:44:21;;;;;;;10.30;9.10;;;;;;;20.69;66.75;100049.94;5056227;28;20452;-85
2022/08/14 02:46:49;;;;;;;9.10;8.30;;;;;;;20.64;66.86;100047.88;5061054;28;20548;-85
2022/08/14 02:49:17;;;;;;;11.90;10.80;;;;;;;20.21;68.76;100048.28;5062427;28;20453;-82
2022/08/14 02:51:47;;;;;;;10.80;9.70;;;;;;;19.89;70.11;100047.22;5054217;28;20482;-83
2022/08/14 02:54:14;;;;;;;11.50;10.27;;;;;;;19.85;70.56;100040.53;5059167;28;20466;-83
2022/08/14 02:56:41;;;;;;;10.90;10.00;;;;;;;19.94;69.78;100045.53;5046421;28;20866;-84
2022/08/14 02:59:09;;;;;;;10.03;9.13;;;;;;;20.09;69.47;100039.94;5056400;28;20528;-83
2022/08/14 03:01:36;;;;;;;10.13;9.03;;;;;;;20.14;69.21;100044.75;5057927;28;20472;-84
2022/08/14 03:04:04;;;;;;;10.53;9.53;;;;;;;20.16;68.55;100031.78;5049507;28;20670;-85
2022/08/14 03:06:32;;;;;;;11.87;9.40;;;;;;;20.21;68.68;100023.88;5065914;28;20476;-85
2022/08/14 03:09:00;;;;;;;10.97;9.70;;;;;;;20.32;68.40;100030.53;5049821;28;20865;-84
2022/08/14 03:11:26;;;;;;;10.17;9.20;;;;;;;20.10;68.98;100025.31;5061856;28;21004;-84
2022/08/14 03:13:53;;;;;;;12.00;10.40;;;;;;;19.93;70.04;100024.91;5060150;28;20487;-86
2022/08/14 03:16:25;;;;;;;10.30;9.30;;;;;;;19.84;70.49;100022.59;5065282;28;20506;-85
2022/08/14 03:18:57;;;;;;;10.80;9.90;;;;;;;20.05;69.53;100025.13;5065911;28;20436;-85
2022/08/14 03:21:24;;;;;;;11.40;9.80;;;;;;;20.03;69.52;100020.94;5063725;28;20480;-85
2022/08/14 03:23:59;;;;;;;9.63;8.83;;;;;;;20.07;69.28;100019.50;5053698;28;20437;-86
2022/08/14 03:26:28;;;;;;;13.20;9.60;;;;;;;20.09;69.38;100017.41;5045354;28;21012;-87
2022/08/14 03:28:54;;;;;;;11.10;10.00;;;;;;;20.13;69.42;100003.19;5049306;28;20790;-85
2022/08/14 03:31:22;;;;;;;9.93;9.00;;;;;;;20.17;68.97;100002.75;5049803;28;20476;-85
2022/08/14 03:33:50;;;;;;;10.33;9.33;;;;;;;20.13;69.11;100002.34;5064336;28;21062;-85
2022/08/14 03:36:20;;;;;;;11.03;10.03;;;;;;;20.13;69.17;100005.88;5054052;28;20485;-85
2022/08/14 03:38:49;;;;;;;10.73;9.73;;;;;;;20.12;69.27;100004.25;5045939;28;20496;-85
2022/08/14 03:41:20;;;;;;;10.10;9.20;;;;;;;19.89;70.16;100001.09;5061116;28;20468;-85
2022/08/14 03:43:49;;;;;;;10.50;9.60;;;;;;;19.82;70.75;100000.25;5058152;28;20448;-84
2022/08/14 03:46:16;;;;;;;10.60;9.70;;;;;;;19.59;71.49;100000.63;5064998;28;20492;-85
2022/08/14 03:48:44;;;;;;;10.80;9.73;;;;;;;19.55;71.68;99989.34;5049087;28;20507;-85
2022/08/14 03:51:12;;;;;;;11.67;10.43;;;;;;;19.24;72.67;99976.34;5058410;28;20497;-85
2022/08/14 03:53:41;;;;;;;10.47;9.50;;;;;;;19.23;72.79;99978.19;5045393;28;20484;-86
2022/08/14 03:56:11;;;;;;;10.97;9.97;;;;;;;19.18;73.32;99975.25;5059538;28;20473;-86
2022/08/14 03:58:40;;;;;;;11.20;10.03;;;;;;;19.13;73.72;99975.91;5060654;28;20799;-87
2022/08/14 04:01:07;;;;;;;10.30;9.30;;;;;;;19.19;73.73;99974.25;5064166;28;20576;-87
2022/08/14 04:03:34;;;;;;;10.80;9.70;;;;;;;19.47;73.04;99973.25;5065158;28;20524;-86
2022/08/14 04:06:01;;;;;;;11.63;10.57;;;;;;;19.58;72.03;99972.66;5064240;28;20480;-86
2022/08/14 04:08:28;;;;;;;10.67;9.20;;;;;;;19.75;71.41;99973.97;5062835;28;20447;-86
2022/08/14 04:10:55;;;;;;;10.50;9.40;;;;;;;19.86;70.89;99964.38;5052729;28;20480;-86
2022/08/14 04:13:22;;;;;;;10.30;9.33;;;;;;;19.87;70.95;99965.19;5057853;28;20500;-86
2022/08/14 04:15:51;;;;;;;10.30;9.40;;;;;;;19.86;70.98;99968.94;5064527;28;20484;-84
2022/08/14 04:18:18;;;;;;;10.40;9.50;;;;;;;19.98;70.42;99963.72;5064201;28;20476;-83
2022/08/14 04:20:44;;;;;;;10.90;10.00;;;;;;;19.99;70.14;99966.25;5060661;28;20513;-83
2022/08/14 04:23:12;;;;;;;10.40;9.50;;;;;;;19.91;69.95;99959.16;5060172;28;20504;-83
2022/08/14 04:25:39;;;;;;;11.87;10.67;;;;;;;19.86;70.41;99958.09;5060289;28;20471;-84
2022/08/14 04:28:07;;;;;;;10.60;9.60;;;;;;;19.88;70.61;99954.16;5061198;28;20464;-81
2022/08/14 04:30:37;;;;;;;12.00;10.83;;;;;;;19.83;70.97;99950.41;5048066;28;20500;-82
2022/08/14 04:33:06;;;;;;;10.27;9.20;;;;;;;20.17;69.56;99951.19;5064164;28;20475;-83
2022/08/14 04:35:32;;;;;;;9.97;8.93;;;;;;;20.55;68.34;99956.75;5056335;28;20560;-83
2022/08/14 04:43:36;;;;;;;9.53;8.57;;;;;;;21.03;65.55;99958.28;5023366;28;20460;-84
2022/08/14 04:46:03;;;;;;;12.17;9.07;;;;;;;20.83;66.38;99961.94;5064044;28;20512;-85
2022/08/14 04:48:31;;;;;;;9.93;9.00;;;;;;;20.69;67.12;99953.00;5064815;28;20488;-85
2022/08/14 04:50:57;;;;;;;10.60;9.70;;;;;;;20.81;66.79;99963.19;5063900;28;20538;-85
2022/08/14 04:53:27;;;;;;;11.77;9.00;;;;;;;20.71;67.23;99955.50;5057673;28;20472;-86
2022/08/14 04:55:54;;;;;;;10.73;9.63;;;;;;;20.77;66.79;99951.09;5056287;28;20476;-86
2022/08/14 04:58:23;;;;;;;10.40;9.43;;;;;;;20.81;66.53;99955.03;5050993;28;20445;-85
2022/08/14 05:00:50;;;;;;;11.87;9.47;;;;;;;20.69;66.13;99950.28;5044399;28;20480;-85
2022/08/14 05:03:19;;;;;;;10.83;9.70;;;;;;;20.83;65.78;99952.91;5053934;28;20465;-85
2022/08/14 05:05:47;;;;;;;13.10;10.80;;;;;;;21.03;65.10;99956.38;5044589;28;20484;-85
2022/08/14 05:08:15;;;;;;;12.67;9.77;;;;;;;21.95;62.32;99955.19;5045556;28;20512;-87
2022/08/14 05:10:43;;;;;;;10.57;8.67;;;;;;;22.29;60.97;99955.72;5045342;28;20493;-85
2022/08/14 05:13:11;;;;;;;10.03;8.40;;;;;;;23.48;56.69;99952.63;5046148;28;20485;-83
2022/08/14 05:15:39;;;;;;;8.67;7.87;;;;;;;25.02;52.03;99958.94;5062762;28;20992;-82
2022/08/14 05:18:11;;;;;;;9.50;8.37;;;;;;;25.31;50.73;99956.19;5054422;28;20486;-83
2022/08/14 05:20:38;;;;;;;8.53;7.73;;;;;;;26.06;48.17;99962.47;5051529;28;20489;-83
2022/08/14 05:23:07;;;;;;;8.07;7.20;;;;;;;26.52;47.22;99960.38;5052141;28;20461;-83
2022/08/14 05:25:34;;;;;;;7.97;7.23;;;;;;;27.05;45.81;99953.41;5061744;28;20473;-82
2022/08/14 05:28:09;;;;;;;8.00;7.40;;;;;;;27.86;43.99;99956.38;5058076;28;20493;-82
2022/08/14 05:30:36;;;;;;;9.20;8.17;;;;;;;26.90;45.74;99958.69;5047451;28;20475;-82
2022/08/14 05:33:02;;;;;;;9.50;8.00;;;;;;;26.20;48.04;99952.81;5062320;28;20504;-81
2022/08/14 05:35:29;;;;;;;9.10;8.20;;;;;;;25.80;49.05;99967.50;5063519;28;20477;-82
2022/08/14 05:37:56;;;;;;;9.33;7.10;;;;;;;26.88;46.82;99957.31;5061281;28;20441;-82
2022/08/14 05:40:24;;;;;;;9.13;8.30;;;;;;;26.58;47.20;99958.53;5060134;28;20485;-84
2022/08/14 05:42:51;;;;;;;10.90;8.30;;;;;;;26.66;47.15;99955.38;5043058;28;20488;-84
2022/08/14 05:45:18;;;;;;;8.80;8.10;;;;;;;26.87;46.92;99956.47;5060357;28;20541;-83
2022/08/14 05:47:45;;;;;;;9.50;8.47;;;;;;;27.83;44.42;99951.41;5052060;28;20466;-81
2022/08/14 05:50:13;;;;;;;8.03;7.23;;;;;;;27.84;44.77;99942.91;5047549;28;20446;-82
2022/08/14 05:52:40;;;;;;;8.20;7.50;;;;;;;28.45;43.64;99937.00;5048413;28;20584;-84
2022/08/14 05:55:09;;;;;;;8.77;7.97;;;;;;;29.39;41.52;99936.28;5052921;28;20449;-83
2022/08/14 05:57:48;;;;;;;8.23;7.00;;;;;;;29.29;41.50;99937.09;5056059;28;20527;-86
2022/08/14 06:00:16;;;;;;;8.90;7.80;;;;;;;28.69;42.50;99937.44;5046666;28;20457;-84
2022/08/14 06:02:43;;;;;;;8.70;7.90;;;;;;;28.97;42.02;99940.84;5059866;28;20457;-84
2022/08/14 06:05:09;;;;;;;8.20;7.50;;;;;;;29.55;41.13;99943.47;5059332;28;20438;-81
2022/08/14 06:07:36;;;;;;;8.40;7.70;;;;;;;30.08;39.97;99940.44;5063091;28;20914;-77
2022/08/14 06:10:03;;;;;;;8.57;7.70;;;;;;;29.93;40.29;99934.94;5047368;28;20453;-87
2022/08/14 06:12:30;;;;;;;7.90;7.30;;;;;;;29.83;40.27;99944.06;5053529;28;20516;-87
2022/08/14 06:14:58;;;;;;;8.23;7.63;;;;;;;29.94;39.78;99939.34;5059668;28;20456;-87
2022/08/14 06:17:25;;;;;;;7.67;6.97;;;;;;;29.50;40.96;99946.22;5042624;28;20660;-86
2022/08/14 06:19:52;;;;;;;8.17;7.40;;;;;;;30.70;38.44;99941.13;5050628;28;20470;-87
2022/08/14 06:22:18;;;;;;;7.83;7.23;;;;;;;30.80;38.02;99943.03;5049241;28;20501;-88
2022/08/14 06:24:45;;;;;;;8.60;7.80;;;;;;;29.82;40.08;99943.22;5046305;28;20457;-86
2022/08/14 06:27:12;;;;;;;7.90;7.30;;;;;;;29.88;40.27;99932.19;5042284;28;20509;-85
2022/08/14 06:29:39;;;;;;;9.00;8.13;;;;;;;30.53;38.96;99935.94;5042255;28;20512;-88
2022/08/14 06:32:08;;;;;;;7.80;7.20;;;;;;;30.10;40.37;99942.91;5053892;28;21101;-88
2022/08/14 06:34:38;;;;;;;8.20;7.30;;;;;;;31.49;36.95;99944.06;5060205;28;20829;-89
2022/08/14 06:37:04;;;;;;;8.73;7.30;;;;;;;30.04;40.56;99942.09;5054060;28;20485;-85
2022/08/14 06:39:32;;;;;;;7.10;6.50;;;;;;;31.14;38.67;99937.63;5051772;28;20486;-85
2022/08/14 06:41:59;;;;;;;8.10;7.40;;;;;;;32.38;34.97;99940.22;5049158;28;20482;-88
2022/08/14 06:44:26;;;;;;;7.10;6.47;;;;;;;32.61;34.90;99926.72;5055497;28;20467;-87
2022/08/14 06:46:53;;;;;;;7.80;6.63;;;;;;;32.53;34.52;99919.03;5061499;28;20481;-87
2022/08/14 06:49:21;;;;;;;7.13;6.63;;;;;;;32.04;35.31;99918.97;5042556;28;20474;-86
2022/08/14 06:51:47;;;;;;;7.40;6.70;;;;;;;32.81;34.28;99932.00;5042092;28;20471;-88
2022/08/14 06:54:14;;;;;;;6.40;5.90;;;;;;;33.38;33.46;99922.88;5051566;28;20549;-88
2022/08/14 06:56:41;;;;;;;6.20;5.80;;;;;;;32.60;34.78;99928.66;5059779;28;20477;-86
2022/08/14 06:59:07;;;;;;;7.40;6.90;;;;;;;32.10;35.52;99930.84;5054897;28;20466;-85
2022/08/14 07:07:04;;;;;;;7.10;6.50;;;;;;;30.87;38.48;99939.97;5054614;28;20523;-85
2022/08/14 07:09:30;;;;;;;7.87;7.17;;;;;;;30.62;38.35;99929.84;5051385;28;20501;-86
2022/08/14 07:11:57;;;;;;;8.73;7.40;;;;;;;30.77;38.18;99929.78;5053032;28;20481;-85
2022/08/14 07:14:24;;;;;;;7.93;7.13;;;;;;;30.58;39.06;99924.06;5050244;28;20486;-85
2022/08/14 07:16:50;;;;;;;7.87;7.27;;;;;;;31.59;37.40;99925.75;5052344;28;20509;-85
2022/08/14 07:19:17;;;;;;;7.73;6.57;;;;;;;32.33;36.50;99920.91;5060389;28;20485;-85
2022/08/14 07:21:44;;;;;;;6.90;6.30;;;;;;;33.49;34.19;99918.00;5053446;28;20466;-88
2022/08/14 07:24:12;;;;;;;9.20;6.93;;;;;;;32.95;34.60;99915.47;5042713;28;20432;-85
2022/08/14 07:26:40;;;;;;;7.33;6.73;;;;;;;32.00;36.13;99915.16;5041457;28;20486;-85
2022/08/14 07:29:06;;;;;;;6.73;6.20;;;;;;;30.81;38.22;99919.00;5041447;28;20490;-86
2022/08/14 07:31:33;;;;;;;8.13;7.40;;;;;;;31.38;37.79;99912.06;5047006;28;20481;-85
2022/08/14 07:34:00;;;;;;;8.40;7.60;;;;;;;31.82;36.80;99913.94;5058476;28;20487;-86
2022/08/14 07:36:27;;;;;;;7.40;6.70;;;;;;;32.46;35.82;99908.31;5049527;28;20503;-86
2022/08/14 07:38:54;;;;;;;7.93;7.23;;;;;;;32.68;35.37;99910.56;5061076;28;20547;-86
2022/08/14 07:41:22;;;;;;;7.20;6.57;;;;;;;31.33;37.70;99903.81;5056159;28;20475;-89
2022/08/14 07:43:49;;;;;;;7.00;6.50;;;;;;;31.93;36.68;99903.59;5055215;28;20454;-86
2022/08/14 07:46:16;;;;;;;8.67;7.87;;;;;;;30.83;38.77;99889.19;5053285;28;20528;-87
2022/08/14 07:48:43;;;;;;;7.50;6.90;;;;;;;32.06;37.01;99883.56;5053222;28;20495;-86
2022/08/14 07:51:10;;;;;;;8.13;6.70;;;;;;;33.66;34.71;99893.34;5054157;28;20477;-88
2022/08/14 07:53:37;;;;;;;7.73;6.77;;;;;;;33.33;34.12;99889.72;5055605;28;20480;-88
2022/08/14 07:56:04;;;;;;;7.20;6.60;;;;;;;33.08;34.77;99888.13;5054767;28;20492;-86
2022/08/14 07:58:32;;;;;;;8.20;7.47;;;;;;;31.57;37.45;99886.53;5051963;28;20807;-87
2022/08/14 08:01:00;;;;;;;7.50;6.90;;;;;;;31.42;38.17;99891.03;5050641;28;20478;-87
2022/08/14 08:03:27;;;;;;;8.23;7.60;;;;;;;31.31;37.81;99889.47;5054218;28;20679;-87
2022/08/14 08:05:54;;;;;;;8.80;7.90;;;;;;;31.50;37.61;99886.84;5064575;28;20499;-86
2022/08/14 08:08:21;;;;;;;11.60;7.13;;;;;;;31.96;37.03;99885.59;5062109;28;20972;-73
2022/08/14 08:10:48;;;;;;;8.17;7.40;;;;;;;31.74;37.62;99880.59;5062861;28;20508;-73
2022/08/14 08:13:16;;;;;;;8.40;7.60;;;;;;;31.44;38.23;99893.50;5058472;28;20512;-72
2022/08/14 08:15:47;;;;;;;8.17;7.47;;;;;;;30.69;39.39;99895.31;5062747;28;20489;-74
2022/08/14 08:18:16;;;;;;;9.70;8.80;;;;;;;30.62;38.71;99886.53;5049604;28;20491;-73
2022/08/14 08:20:45;;;;;;;8.97;7.50;;;;;;;31.27;38.07;99886.44;5056461;28;20509;-72
2022/08/14 08:23:13;;;;;;;8.40;7.60;;;;;;;30.94;38.68;99882.53;5063688;28;20581;-72
2022/08/14 08:25:42;;;;;;;8.40;7.70;;;;;;;31.93;37.00;99884.25;5046105;28;20472;-73
2022/08/14 08:28:10;;;;;;;8.20;7.40;;;;;;;31.52;37.79;99877.16;5056174;28;20473;-73
2022/08/14 08:30:39;;;;;;;7.47;6.87;;;;;;;33.39;34.84;99885.75;5048151;28;20513;-73
2022/08/14 08:33:10;;;;;;;8.20;7.43;;;;;;;32.74;34.83;99887.25;5063293;28;20446;-73
2022/08/14 08:35:38;;;;;;;8.30;7.50;;;;;;;32.38;35.82;99884.06;5053004;28;20549;-75
2022/08/14 08:38:07;;;;;;;7.97;7.27;;;;;;;33.53;33.99;99888.56;5063248;28;20533;-78
2022/08/14 08:40:38;;;;;;;7.90;7.20;;;;;;;32.25;35.54;99869.00;5053195;28;20816;-76
2022/08/14 08:43:06;;;;;;;10.03;7.17;;;;;;;33.34;34.46;99877.50;5053725;28;20500;-78
2022/08/14 08:45:34;;;;;;;8.23;7.43;;;;;;;32.90;34.32;99874.00;5062776;28;20463;-78
2022/08/14 08:48:01;;;;;;;8.13;7.43;;;;;;;32.89;34.26;99861.25;5063288;28;20455;-80
2022/08/14 08:50:31;;;;;;;7.97;7.23;;;;;;;33.34;33.85;99867.25;5043857;28;20470;-83
2022/08/14 08:53:00;;;;;;;9.03;7.77;;;;;;;32.50;35.12;99861.50;5051637;28;20512;-82
2022/08/14 08:55:29;;;;;;;8.53;7.73;;;;;;;31.60;36.14;99852.81;5043280;28;20477;-78
2022/08/14 08:57:58;;;;;;;8.47;7.63;;;;;;;32.66;34.77;99843.59;5046586;28;20481;-77
2022/08/14 09:00:28;;;;;;;7.50;6.87;;;;;;;32.43;34.70;99843.31;5047396;28;20481;-74
2022/08/14 09:02:56;;;;;;;8.47;7.67;;;;;;;32.52;34.71;99832.41;5045465;28;20517;-73
2022/08/14 09:05:24;;;;;;;7.90;7.20;;;;;;;31.94;35.59;99840.84;5042772;28;20956;-73
2022/08/14 09:07:52;;;;;;;8.30;7.60;;;;;;;32.72;33.88;99824.97;5059511;28;21015;-72
2022/08/14 09:10:19;;;;;;;8.47;7.77;;;;;;;32.84;34.03;99820.63;5062155;28;20445;-72
2022/08/14 09:12:47;;;;;;;8.47;7.77;;;;;;;34.61;31.77;99826.31;5062403;28;20458;-72
2022/08/14 09:15:15;;;;;;;8.20;7.50;;;;;;;34.57;31.54;99816.16;5061285;28;20501;-72
2022/08/14 09:17:43;;;;;;;10.53;7.57;;;;;;;34.96;31.31;99815.53;5061041;28;20455;-72
2022/08/14 09:20:10;;;;;;;7.87;7.27;;;;;;;35.14;30.95;99807.31;5062877;28;20458;-73
2022/08/14 09:22:37;;;;;;;7.87;7.13;;;;;;;35.59;30.35;99802.56;5063000;28;20487;-71
2022/08/14 09:25:07;;;;;;;7.03;6.53;;;;;;;36.06;30.03;99813.28;5063545;28;20462;-70
2022/08/14 09:27:33;;;;;;;7.70;7.10;;;;;;;35.40;30.18;99804.75;5050326;28;20817;-71
2022/08/14 09:30:00;;;;;;;7.50;6.90;;;;;;;35.41;30.52;99798.03;5043274;28;21104;-71
2022/08/14 09:32:33;;;;;;;8.03;7.20;;;;;;;34.50;31.69;99799.91;5057257;28;20470;-72
2022/08/14 09:35:05;;;;;;;8.27;7.47;;;;;;;32.76;34.37;99806.63;5063785;28;20475;-72
2022/08/14 09:37:42;;;;;;;8.10;7.40;;;;;;;32.82;33.70;99803.50;5052217;28;20479;-71
2022/08/14 09:40:16;;;;;;;8.13;7.53;;;;;;;33.68;33.27;99794.06;5060128;28;20469;-72
2022/08/14 09:42:51;;;;;;;8.40;7.60;;;;;;;33.78;32.83;99795.81;5049410;28;20450;-76
2022/08/14 09:45:19;;;;;;;8.13;7.43;;;;;;;33.46;33.46;99794.72;5054942;28;20451;-76
2022/08/14 09:47:48;;;;;;;8.30;7.20;;;;;;;33.81;32.24;99792.44;5052736;28;20530;-76
2022/08/14 09:50:17;;;;;;;7.97;7.20;;;;;;;34.09;32.06;99793.25;5057729;28;20478;-75
2022/08/14 09:52:51;;;;;;;8.07;7.33;;;;;;;34.39;31.79;99791.00;5055799;28;20427;-76
2022/08/14 09:55:20;;;;;;;7.73;7.10;;;;;;;33.98;32.69;99780.72;5055830;28;20490;-76
2022/08/14 09:57:47;;;;;;;7.67;7.07;;;;;;;34.05;32.58;99772.81;5054805;28;20540;-75
2022/08/14 10:00:17;;;;;;;9.07;8.23;;;;;;;34.82;30.84;99775.88;5047935;28;20442;-75
2022/08/14 10:02:52;;;;;;;7.47;6.87;;;;;;;34.71;31.50;99775.31;5057302;28;20870;-75
2022/08/14 10:05:29;;;;;;;8.17;7.37;;;;;;;33.81;32.01;99764.72;5049608;28;21010;-74
2022/08/14 10:07:56;;;;;;;8.20;7.50;;;;;;;33.79;31.58;99764.19;5042726;28;20502;-75
2022/08/14 10:10:32;;;;;;;7.87;7.27;;;;;;;34.67;30.69;99768.72;5043701;28;20477;-74
2022/08/14 10:13:01;;;;;;;8.07;7.37;;;;;;;34.28;31.55;99764.59;5043753;28;20487;-76
2022/08/14 10:15:29;;;;;;;7.57;6.67;;;;;;;35.12;30.17;99759.59;5043424;28;20479;-76
2022/08/14 10:18:08;;;;;;;8.03;7.33;;;;;;;34.29;31.12;99757.94;5061530;28;20445;-75
2022/08/14 10:20:38;;;;;;;7.40;6.70;;;;;;;34.14;30.71;99756.25;5057737;28;20470;-76
2022/08/14 10:23:13;;;;;;;7.53;6.83;;;;;;;33.02;31.79;99760.00;5052005;28;20457;-76
2022/08/14 10:25:43;;;;;;;7.30;6.70;;;;;;;33.77;31.47;99750.63;5055321;28;20480;-76
2022/08/14 10:28:14;;;;;;;7.83;6.73;;;;;;;34.97;30.24;99749.69;5041569;28;20529;-77
2022/08/14 10:30:42;;;;;;;8.70;6.90;;;;;;;34.82;29.51;99743.38;5045350;28;20548;-77
2022/08/14 10:33:09;;;;;;;7.13;6.50;;;;;;;35.02;28.76;99742.03;5061699;28;20473;-76
2022/08/14 10:35:42;;;;;;;7.13;6.53;;;;;;;33.93;30.27;99742.00;5061420;28;20474;-77
2022/08/14 10:38:09;;;;;;;7.43;6.83;;;;;;;33.97;30.20;99718.06;5060157;28;20454;-77
2022/08/14 10:40:36;;;;;;;7.57;6.77;;;;;;;35.02;29.82;99730.13;5060365;28;20480;-77
2022/08/14 10:43:16;;;;;;;7.70;7.00;;;;;;;34.28;29.87;99736.84;5042755;28;20568;-76
2022/08/14 10:45:53;;;;;;;7.80;6.03;;;;;;;33.48;31.87;99720.41;5041620;28;21025;-77
2022/08/14 10:48:20;;;;;;;8.80;7.50;;;;;;;33.81;31.40;99720.34;5052287;28;20513;-77
2022/08/14 10:50:50;;;;;;;6.87;6.27;;;;;;;33.64;31.77;99709.03;5044269;28;20501;-76
2022/08/14 10:53:27;;;;;;;8.33;6.83;;;;;;;34.06;30.89;99716.22;5046321;28;20973;-75
2022/08/14 10:55:58;;;;;;;7.80;7.10;;;;;;;34.97;29.94;99710.81;5051408;28;20482;-76
2022/08/14 10:58:30;;;;;;;8.73;7.00;;;;;;;35.33;28.86;99709.88;5047929;28;20469;-75
2022/08/14 11:00:59;;;;;;;7.30;6.70;;;;;;;35.11;28.33;99699.63;5056684;28;20474;-77
2022/08/14 11:03:37;;;;;;;7.40;6.80;;;;;;;34.31;29.71;99700.16;5060005;28;20589;-76
2022/08/14 11:06:18;;;;;;;6.80;6.20;;;;;;;34.37;29.98;99709.97;5059138;28;20513;-75
2022/08/14 11:08:46;;;;;;;7.87;7.10;;;;;;;33.30;31.39;99686.13;5059352;28;20437;-74
2022/08/14 11:11:13;;;;;;;8.47;6.50;;;;;;;34.88;29.64;99688.53;5059142;28;20485;-75
2022/08/14 11:13:45;;;;;;;7.43;6.63;;;;;;;34.33;30.11;99682.03;5049237;28;20501;-76
2022/08/14 11:16:12;;;;;;;6.80;6.20;;;;;;;34.11;29.86;99685.59;5049614;28;20569;-75
2022/08/14 11:18:39;;;;;;;6.63;6.07;;;;;;;33.94;29.88;99699.28;5063595;28;20454;-75
2022/08/14 11:21:06;;;;;;;7.40;6.70;;;;;;;33.22;30.68;99690.41;5055536;28;20509;-76
2022/08/14 11:23:35;;;;;;;7.30;6.00;;;;;;;34.18;29.97;99690.69;5043340;28;20446;-75
2022/08/14 11:26:05;;;;;;;5.90;5.40;;;;;;;34.63;28.96;99690.75;5050338;28;20488;-76
2022/08/14 11:28:34;;;;;;;6.43;5.83;;;;;;;35.04;29.23;99691.72;5062636;28;20470;-77
2022/08/14 11:31:03;;;;;;;7.43;5.40;;;;;;;34.25;28.99;99685.59;5048212;28;20488;-76
2022/08/14 11:33:33;;;;;;;6.53;5.93;;;;;;;34.41;27.87;99693.53;5049771;28;20504;-76
2022/08/14 11:36:01;;;;;;;5.80;5.30;;;;;;;34.68;28.14;99687.06;5047949;28;20494;-73
2022/08/14 11:38:28;;;;;;;8.80;6.07;;;;;;;35.31;28.19;99687.13;5044139;28;20478;-73
2022/08/14 11:40:57;;;;;;;5.23;4.73;;;;;;;35.13;27.15;99672.31;5056400;28;20473;-73
2022/08/14 11:43:24;;;;;;;5.63;5.13;;;;;;;34.36;29.12;99672.28;5053621;28;20489;-71
2022/08/14 11:45:51;;;;;;;6.50;5.93;;;;;;;34.31;28.49;99676.00;5052831;28;20543;-71